createdAt,value
2023-04-03T00:00:11.126Z,14.27
2023-04-03T00:02:38.115Z,14.51
2023-04-03T00:05:05.889Z,14.51
2023-04-03T00:07:32.623Z,14.51
2023-04-03T00:10:00.382Z,14.38
2023-04-03T00:12:27.144Z,14.48
2023-04-03T00:14:53.872Z,14.48
2023-04-03T00:17:20.875Z,14.45
2023-04-03T00:19:48.717Z,14.31
2023-04-03T00:22:15.511Z,14.37
2023-04-03T00:24:42.425Z,14.31
2023-04-03T00:27:09.290Z,14.27
2023-04-03T00:29:36.031Z,13.95
2023-04-03T00:32:02.902Z,14.14
2023-04-03T00:34:29.746Z,14.05
2023-04-03T00:36:56.929Z,14.01
2023-04-03T00:39:23.812Z,13.88
2023-04-03T00:41:50.588Z,13.65
2023-04-03T00:44:36.675Z,13.94
2023-04-03T00:47:03.913Z,13.98
2023-04-03T00:49:30.989Z,14.01
2023-04-03T00:51:57.782Z,14.00
2023-04-03T00:54:24.523Z,13.78
2023-04-03T00:56:52.560Z,13.96
2023-04-03T00:59:27.763Z,13.95
2023-04-03T01:01:56.478Z,13.93
2023-04-03T01:04:30.404Z,13.93
2023-04-03T01:06:58.970Z,13.90
2023-04-03T01:09:25.781Z,13.51
2023-04-03T01:11:52.755Z,13.65
2023-04-03T01:14:19.590Z,13.85
2023-04-03T01:16:55.929Z,13.81
2023-04-03T01:19:22.766Z,13.71
2023-04-03T01:21:55.692Z,13.84
2023-04-03T01:24:43.232Z,13.82
2023-04-03T01:27:11.231Z,13.78
2023-04-03T01:29:38.138Z,13.63
2023-04-03T01:32:05.428Z,13.74
2023-04-03T01:34:32.286Z,13.64
2023-04-03T01:36:59.349Z,13.78
2023-04-03T01:39:26.366Z,13.79
2023-04-03T01:41:53.422Z,13.57
2023-04-03T01:44:20.259Z,13.85
2023-04-03T01:46:47.609Z,13.84
2023-04-03T01:49:14.408Z,13.86
2023-04-03T01:51:41.234Z,13.85
2023-04-03T01:54:08.050Z,13.73
2023-04-03T01:56:34.778Z,13.72
2023-04-03T01:59:01.584Z,13.41
2023-04-03T02:01:28.445Z,13.58
2023-04-03T02:03:55.799Z,13.41
2023-04-03T02:06:22.840Z,12.93
2023-04-03T02:08:50.168Z,13.10
2023-04-03T02:11:17.111Z,13.01
2023-04-03T02:13:44.001Z,12.89
2023-04-03T02:16:11.191Z,12.59
2023-04-03T02:18:38.628Z,12.55
2023-04-03T02:21:05.659Z,12.43
2023-04-03T02:23:32.468Z,12.28
2023-04-03T02:26:09.868Z,11.91
2023-04-03T02:28:36.771Z,11.99
2023-04-03T02:31:03.921Z,12.03
2023-04-03T02:33:31.398Z,12.02
2023-04-03T02:35:58.615Z,12.02
2023-04-03T02:38:25.611Z,12.02
2023-04-03T02:40:53.423Z,11.99
2023-04-03T02:43:20.401Z,12.11
2023-04-03T02:45:47.276Z,12.20
2023-04-03T02:48:16.136Z,12.23
2023-04-03T02:50:42.923Z,12.19
2023-04-03T02:53:09.772Z,11.50
2023-04-03T02:55:36.600Z,12.20
2023-04-03T02:58:04.635Z,12.00
2023-04-03T03:00:31.675Z,12.17
2023-04-03T03:02:58.667Z,12.06
2023-04-03T03:05:25.815Z,12.33
2023-04-03T03:07:52.534Z,12.35
2023-04-03T03:10:19.385Z,12.18
2023-04-03T03:12:46.566Z,12.16
2023-04-03T03:15:13.309Z,12.09
2023-04-03T03:17:40.329Z,11.88
2023-04-03T03:20:07.842Z,11.99
2023-04-03T03:22:35.095Z,11.76
2023-04-03T03:25:03.452Z,12.09
2023-04-03T03:27:30.586Z,12.19
2023-04-03T03:29:57.378Z,12.31
2023-04-03T03:32:24.393Z,12.35
2023-04-03T03:34:51.220Z,12.32
2023-04-03T03:37:17.955Z,12.26
2023-04-03T03:39:47.516Z,12.19
2023-04-03T03:42:14.333Z,12.08
2023-04-03T03:44:41.162Z,12.19
2023-04-03T03:47:10.921Z,12.18
2023-04-03T03:49:37.745Z,12.23
2023-04-03T03:52:04.661Z,12.27
2023-04-03T03:54:31.641Z,12.16
2023-04-03T03:56:58.482Z,11.78
2023-04-03T03:59:26.058Z,11.90
2023-04-03T04:01:53.008Z,11.85
2023-04-03T04:04:20.012Z,11.81
2023-04-03T04:06:46.979Z,11.70
2023-04-03T04:09:13.944Z,11.51
2023-04-03T04:11:41.511Z,11.28
2023-04-03T04:14:11.536Z,11.32
2023-04-03T04:16:38.557Z,11.27
2023-04-03T04:19:07.492Z,10.79
2023-04-03T04:21:35.080Z,11.01
2023-04-03T04:24:01.894Z,10.84
2023-04-03T04:26:28.712Z,10.92
2023-04-03T04:28:55.485Z,10.90
2023-04-03T04:31:22.398Z,10.90
2023-04-03T04:33:49.205Z,10.90
2023-04-03T04:36:16.137Z,11.03
2023-04-03T04:38:43.234Z,11.14
2023-04-03T04:41:10.051Z,11.30
2023-04-03T04:43:37.246Z,11.25
2023-04-03T04:46:08.596Z,11.28
2023-04-03T04:48:36.190Z,11.13
2023-04-03T04:51:03.394Z,11.23
2023-04-03T04:53:30.258Z,11.34
2023-04-03T04:55:57.066Z,11.35
2023-04-03T04:58:23.910Z,11.33
2023-04-03T05:00:50.944Z,11.24
2023-04-03T05:03:17.698Z,11.19
2023-04-03T05:05:44.489Z,10.67
2023-04-03T05:08:11.806Z,11.21
2023-04-03T05:10:38.594Z,11.17
2023-04-03T05:13:05.393Z,11.09
2023-04-03T05:15:32.253Z,11.06
2023-04-03T05:17:59.151Z,10.86
2023-04-03T05:20:26.394Z,11.04
2023-04-03T05:22:53.336Z,11.08
2023-04-03T05:25:20.520Z,11.19
2023-04-03T05:27:47.733Z,11.03
2023-04-03T05:30:14.819Z,11.03
2023-04-03T05:32:42.003Z,11.26
2023-04-03T05:35:09.127Z,10.91
2023-04-03T05:37:36.055Z,11.26
2023-04-03T05:40:03.317Z,11.21
2023-04-03T05:42:30.752Z,11.09
2023-04-03T05:44:57.607Z,10.75
2023-04-03T05:47:24.729Z,10.96
2023-04-03T05:49:51.456Z,10.98
2023-04-03T05:52:27.316Z,10.96
2023-04-03T05:54:54.201Z,10.86
2023-04-03T05:57:21.347Z,10.88
2023-04-03T05:59:48.249Z,10.93
2023-04-03T06:02:17.141Z,10.99
2023-04-03T06:04:44.347Z,10.89
2023-04-03T06:07:13.194Z,11.11
2023-04-03T06:09:39.952Z,11.22
2023-04-03T06:12:06.810Z,11.28
2023-04-03T06:14:33.693Z,11.27
2023-04-03T06:17:01.006Z,11.22
2023-04-03T06:19:27.749Z,11.21
2023-04-03T06:21:55.138Z,10.89
2023-04-03T06:24:23.903Z,11.10
2023-04-03T06:26:52.383Z,11.08
2023-04-03T06:29:21.172Z,11.07
2023-04-03T06:31:47.974Z,10.85
2023-04-03T06:34:15.022Z,10.65
2023-04-03T06:36:41.997Z,10.91
2023-04-03T06:39:09.752Z,10.70
2023-04-03T06:41:37.279Z,10.74
2023-04-03T06:44:04.601Z,10.71
2023-04-03T06:46:31.710Z,10.62
2023-04-03T06:48:58.544Z,10.56
2023-04-03T06:51:27.977Z,10.58
2023-04-03T06:53:56.164Z,10.36
2023-04-03T06:56:23.295Z,11.07
2023-04-03T06:58:50.301Z,11.30
2023-04-03T07:01:17.603Z,11.48
2023-04-03T07:03:44.733Z,10.90
2023-04-03T07:06:13.019Z,11.49
2023-04-03T07:08:40.190Z,11.34
2023-04-03T07:11:07.284Z,11.45
2023-04-03T07:13:34.149Z,11.80
2023-04-03T07:16:01.623Z,11.82
2023-04-03T07:18:28.573Z,11.88
2023-04-03T07:20:55.293Z,11.97
2023-04-03T07:23:22.026Z,12.06
2023-04-03T07:25:49.853Z,11.93
2023-04-03T07:28:16.818Z,11.93
2023-04-03T07:30:46.224Z,12.26
2023-04-03T07:33:14.301Z,12.52
2023-04-03T07:35:41.975Z,12.65
2023-04-03T07:38:09.106Z,12.84
2023-04-03T07:40:36.170Z,12.91
2023-04-03T07:43:03.612Z,13.06
2023-04-03T07:45:30.570Z,12.96
2023-04-03T07:47:57.836Z,13.21
2023-04-03T07:50:24.667Z,13.44
2023-04-03T07:52:51.988Z,13.51
2023-04-03T07:55:18.959Z,13.33
2023-04-03T07:57:46.274Z,13.71
2023-04-03T08:00:14.832Z,13.75
2023-04-03T08:02:41.815Z,13.73
2023-04-03T08:05:09.133Z,13.51
2023-04-03T08:07:37.773Z,13.70
2023-04-03T08:10:04.932Z,13.82
2023-04-03T08:12:33.046Z,13.82
2023-04-03T08:15:01.503Z,13.59
2023-04-03T08:17:28.416Z,13.70
2023-04-03T08:19:55.155Z,13.65
2023-04-03T08:22:22.061Z,13.83
2023-04-03T08:24:58.427Z,13.95
2023-04-03T08:27:25.991Z,13.96
2023-04-03T08:29:53.189Z,14.17
2023-04-03T08:32:20.148Z,14.23
2023-04-03T08:34:47.402Z,14.19
2023-04-03T08:37:14.376Z,13.99
2023-04-03T08:39:41.151Z,14.21
2023-04-03T08:42:19.642Z,14.35
2023-04-03T08:44:49.351Z,14.53
2023-04-03T08:47:42.533Z,14.08
2023-04-03T08:50:13.969Z,14.81
2023-04-03T08:52:43.341Z,15.10
2023-04-03T08:55:29.647Z,15.51
2023-04-03T08:58:04.300Z,15.68
2023-04-03T09:00:55.372Z,15.79
2023-04-03T09:03:22.789Z,15.66
2023-04-03T09:05:54.040Z,15.99
2023-04-03T09:08:27.237Z,16.26
2023-04-03T09:11:01.853Z,16.22
2023-04-03T09:13:50.901Z,16.65
2023-04-03T09:16:39.403Z,16.79
2023-04-03T09:19:31.706Z,16.86
2023-04-03T09:21:59.158Z,16.89
2023-04-03T09:24:26.251Z,16.72
2023-04-03T09:26:57.391Z,16.99
2023-04-03T09:29:24.760Z,17.03
2023-04-03T09:31:54.347Z,17.24
2023-04-03T09:34:27.894Z,17.11
2023-04-03T09:36:56.692Z,17.08
2023-04-03T09:39:31.349Z,16.85
2023-04-03T09:42:02.311Z,17.35
2023-04-03T09:44:37.930Z,17.36
2023-04-03T09:47:27.735Z,17.56
2023-04-03T09:50:16.192Z,17.67
2023-04-03T09:52:44.057Z,17.80
2023-04-03T09:55:28.497Z,17.93
2023-04-03T09:58:06.601Z,17.75
2023-04-03T10:00:38.364Z,17.91
2023-04-03T10:03:05.560Z,18.10
2023-04-03T10:05:40.553Z,17.99
2023-04-03T10:08:16.469Z,18.20
2023-04-03T10:10:48.276Z,18.30
2023-04-03T10:13:22.118Z,18.37
2023-04-03T10:15:53.997Z,18.33
2023-04-03T10:18:41.414Z,18.00
2023-04-03T10:21:28.804Z,18.11
2023-04-03T10:24:04.492Z,18.07
2023-04-03T10:26:42.698Z,18.02
2023-04-03T10:29:27.629Z,17.97
2023-04-03T10:32:03.577Z,18.02
2023-04-03T10:34:36.990Z,18.17
2023-04-03T10:37:15.315Z,18.26
2023-04-03T10:39:47.839Z,18.34
2023-04-03T10:42:20.896Z,18.29
2023-04-03T10:44:53.637Z,18.55
2023-04-03T10:47:43.787Z,18.71
2023-04-03T10:50:41.114Z,18.92
2023-04-03T10:53:39.634Z,18.86
2023-04-03T10:56:31.458Z,19.38
2023-04-03T10:59:29.815Z,19.51
2023-04-03T11:02:01.967Z,19.42
2023-04-03T11:04:30.877Z,19.72
2023-04-03T11:07:24.459Z,19.84
2023-04-03T11:09:58.114Z,19.94
2023-04-03T11:12:49.339Z,20.05
2023-04-03T11:15:20.921Z,20.19
2023-04-03T11:17:59.575Z,20.35
2023-04-03T11:20:38.888Z,20.71
2023-04-03T11:23:19.717Z,21.09
2023-04-03T11:25:46.544Z,21.26
2023-04-03T11:28:14.539Z,21.42
2023-04-03T11:30:52.969Z,21.52
2023-04-03T11:33:29.637Z,21.83
2023-04-03T11:36:05.411Z,21.86
2023-04-03T11:38:40.659Z,21.75
2023-04-03T11:41:08.560Z,21.87
2023-04-03T11:43:35.572Z,21.79
2023-04-03T11:46:06.402Z,21.98
2023-04-03T11:48:36.550Z,21.62
2023-04-03T11:51:29.302Z,22.13
2023-04-03T11:53:56.147Z,22.15
2023-04-03T11:56:28.660Z,22.14
2023-04-03T11:59:14.834Z,22.05
2023-04-03T12:01:45.790Z,21.81
2023-04-03T12:04:15.840Z,21.95
2023-04-03T12:06:46.656Z,22.17
2023-04-03T12:09:43.291Z,22.56
2023-04-03T12:12:23.986Z,22.62
2023-04-03T12:14:51.060Z,23.16
2023-04-03T12:17:25.687Z,23.62
2023-04-03T12:19:53.022Z,23.93
2023-04-03T12:22:21.849Z,24.18
2023-04-03T12:24:50.749Z,24.34
2023-04-03T12:27:24.761Z,24.61
2023-04-03T12:29:53.189Z,24.83
2023-04-03T12:32:44.383Z,25.14
2023-04-03T12:35:38.067Z,25.12
2023-04-03T12:38:28.560Z,25.20
2023-04-03T12:41:04.278Z,25.44
2023-04-03T12:43:41.744Z,25.58
2023-04-03T12:46:09.033Z,25.66
2023-04-03T12:48:45.823Z,25.25
2023-04-03T12:51:17.050Z,25.83
2023-04-03T12:53:44.036Z,25.74
2023-04-03T12:56:27.602Z,25.65
2023-04-03T12:58:55.710Z,25.57
2023-04-03T13:01:26.079Z,25.53
2023-04-03T13:03:57.480Z,25.22
2023-04-03T13:06:45.789Z,24.89
2023-04-03T13:09:28.846Z,24.87
2023-04-03T13:12:17.019Z,24.92
2023-04-03T13:14:56.819Z,24.52
2023-04-03T13:17:23.772Z,24.51
2023-04-03T13:19:51.685Z,24.11
2023-04-03T13:22:33.940Z,23.77
2023-04-03T13:25:04.038Z,23.37
2023-04-03T13:27:31.470Z,23.01
2023-04-03T13:29:59.265Z,22.68
2023-04-03T13:32:27.056Z,22.27
2023-04-03T13:34:58.280Z,22.28
2023-04-03T13:37:31.959Z,22.08
2023-04-03T13:40:12.376Z,21.88
2023-04-03T13:42:42.056Z,21.78
2023-04-03T13:45:31.837Z,21.71
2023-04-03T13:48:24.736Z,21.12
2023-04-03T13:51:03.552Z,21.38
2023-04-03T13:53:31.332Z,21.28
2023-04-03T13:56:09.485Z,21.39
2023-04-03T13:58:37.225Z,21.27
2023-04-03T14:01:19.366Z,21.22
2023-04-03T14:04:18.930Z,21.17
2023-04-03T14:06:47.557Z,21.16
2023-04-03T14:09:14.951Z,21.11
2023-04-03T14:11:42.183Z,21.05
2023-04-03T14:14:17.602Z,20.64
2023-04-03T14:16:48.357Z,20.71
2023-04-03T14:19:21.544Z,20.91
2023-04-03T14:21:48.418Z,20.57
2023-04-03T14:24:15.176Z,20.90
2023-04-03T14:26:42.292Z,20.87
2023-04-03T14:29:11.773Z,20.71
2023-04-03T14:31:38.488Z,20.86
2023-04-03T14:34:05.274Z,20.78
2023-04-03T14:36:32.457Z,20.58
2023-04-03T14:38:59.410Z,20.45
2023-04-03T14:41:27.142Z,20.39
2023-04-03T14:43:54.282Z,20.41
2023-04-03T14:46:35.084Z,20.31
2023-04-03T14:49:17.935Z,20.42
2023-04-03T14:51:44.946Z,20.26
2023-04-03T14:54:16.843Z,20.31
2023-04-03T14:56:46.580Z,20.30
2023-04-03T14:59:14.098Z,20.26
2023-04-03T15:01:40.982Z,20.26
2023-04-03T15:04:15.280Z,20.25
2023-04-03T15:06:42.250Z,20.21
2023-04-03T15:09:25.059Z,20.16
2023-04-03T15:11:52.818Z,19.80
2023-04-03T15:14:29.924Z,19.86
2023-04-03T15:17:04.659Z,20.02
2023-04-03T15:19:33.898Z,19.86
2023-04-03T15:22:01.095Z,19.89
2023-04-03T15:24:27.880Z,19.88
2023-04-03T15:26:54.669Z,19.77
2023-04-03T15:29:21.393Z,19.55
2023-04-03T15:31:48.323Z,19.74
2023-04-03T15:34:15.720Z,19.72
2023-04-03T15:36:42.644Z,19.67
2023-04-03T15:39:09.486Z,19.63
2023-04-03T15:41:36.318Z,19.50
2023-04-03T15:44:03.125Z,19.54
2023-04-03T15:46:30.133Z,19.28
2023-04-03T15:48:57.077Z,18.92
2023-04-03T15:51:24.266Z,19.36
2023-04-03T15:53:51.479Z,18.86
2023-04-03T15:56:18.217Z,19.31
2023-04-03T15:58:45.103Z,19.26
2023-04-03T16:01:12.059Z,19.03
2023-04-03T16:03:45.099Z,19.15
2023-04-03T16:06:15.950Z,18.86
2023-04-03T16:08:43.274Z,18.67
2023-04-03T16:11:10.152Z,19.06
2023-04-03T16:13:37.257Z,19.04
2023-04-03T16:16:04.115Z,19.02
2023-04-03T16:18:30.987Z,19.01
2023-04-03T16:20:57.861Z,18.97
2023-04-03T16:23:24.788Z,18.89
2023-04-03T16:25:51.704Z,18.94
2023-04-03T16:28:19.198Z,18.92
2023-04-03T16:30:46.660Z,18.71
2023-04-03T16:33:13.837Z,18.76
2023-04-03T16:35:43.162Z,18.83
2023-04-03T16:38:10.028Z,18.80
2023-04-03T16:40:36.873Z,18.77
2023-04-03T16:43:03.828Z,18.75
2023-04-03T16:45:30.678Z,18.70
2023-04-03T16:47:57.560Z,18.63
2023-04-03T16:50:24.477Z,18.62
2023-04-03T16:52:51.355Z,18.58
2023-04-03T16:55:18.228Z,18.53
2023-04-03T16:57:45.049Z,18.46
2023-04-03T17:00:12.295Z,18.47
2023-04-03T17:02:40.481Z,18.45
2023-04-03T17:05:08.074Z,18.42
2023-04-03T17:07:34.880Z,18.39
2023-04-03T17:10:01.640Z,18.32
2023-04-03T17:12:28.520Z,18.28
2023-04-03T17:14:55.308Z,18.24
2023-04-03T17:17:23.391Z,18.07
2023-04-03T17:19:50.408Z,17.98
2023-04-03T17:22:18.232Z,17.98
2023-04-03T17:24:46.018Z,18.05
2023-04-03T17:27:12.934Z,17.91
2023-04-03T17:29:39.758Z,17.87
2023-04-03T17:32:06.694Z,17.83
2023-04-03T17:34:33.903Z,17.81
2023-04-03T17:37:00.740Z,17.20
2023-04-03T17:39:27.787Z,17.51
2023-04-03T17:41:55.352Z,17.71
2023-04-03T17:44:22.471Z,17.41
2023-04-03T17:46:49.357Z,17.43
2023-04-03T17:49:19.061Z,17.56
2023-04-03T17:51:45.902Z,17.64
2023-04-03T17:54:12.929Z,17.52
2023-04-03T17:56:39.836Z,17.67
2023-04-03T17:59:06.984Z,17.71
2023-04-03T18:01:34.866Z,17.51
2023-04-03T18:04:03.868Z,17.65
2023-04-03T18:06:50.780Z,17.25
2023-04-03T18:09:19.855Z,17.57
2023-04-03T18:11:47.262Z,17.31
2023-04-03T18:14:14.887Z,17.61
2023-04-03T18:16:41.806Z,17.43
2023-04-03T18:19:21.755Z,17.64
2023-04-03T18:21:50.537Z,17.63
2023-04-03T18:24:18.248Z,17.59
2023-04-03T18:26:46.748Z,17.59
2023-04-03T18:29:13.724Z,17.47
2023-04-03T18:31:41.764Z,17.61
2023-04-03T18:34:08.489Z,17.59
2023-04-03T18:36:35.346Z,17.52
2023-04-03T18:39:02.237Z,17.45
2023-04-03T18:41:30.504Z,17.12
2023-04-03T18:43:58.966Z,17.20
2023-04-03T18:46:25.758Z,17.12
2023-04-03T18:48:53.286Z,16.97
2023-04-03T18:51:20.138Z,16.89
2023-04-03T18:53:46.893Z,16.81
2023-04-03T18:56:13.749Z,16.70
2023-04-03T18:58:41.086Z,16.62
2023-04-03T19:01:08.020Z,16.26
2023-04-03T19:03:35.453Z,16.43
2023-04-03T19:06:03.202Z,16.21
2023-04-03T19:08:30.047Z,16.40
2023-04-03T19:10:57.260Z,16.34
2023-04-03T19:13:24.092Z,16.31
2023-04-03T19:15:52.194Z,16.28
2023-04-03T19:18:18.909Z,16.25
2023-04-03T19:20:45.712Z,16.24
2023-04-03T19:23:13.602Z,16.20
2023-04-03T19:25:41.737Z,16.27
2023-04-03T19:28:09.223Z,15.98
2023-04-03T19:30:38.050Z,16.21
2023-04-03T19:33:04.903Z,16.16
2023-04-03T19:35:32.088Z,16.14
2023-04-03T19:37:58.901Z,15.81
2023-04-03T19:40:26.040Z,16.14
2023-04-03T19:42:52.942Z,16.03
2023-04-03T19:45:20.490Z,16.10
2023-04-03T19:47:47.500Z,15.84
2023-04-03T19:50:14.391Z,15.90
2023-04-03T19:52:41.276Z,15.99
2023-04-03T19:55:08.379Z,15.97
2023-04-03T19:57:35.234Z,15.12
2023-04-03T20:00:02.025Z,15.83
2023-04-03T20:02:28.954Z,15.82
2023-04-03T20:04:58.498Z,15.19
2023-04-03T20:07:25.416Z,15.81
2023-04-03T20:09:52.195Z,15.74
2023-04-03T20:12:18.993Z,15.09
2023-04-03T20:14:46.959Z,15.69
2023-04-03T20:17:13.850Z,15.58
2023-04-03T20:19:40.978Z,15.66
2023-04-03T20:22:07.783Z,15.52
2023-04-03T20:24:34.774Z,15.63
2023-04-03T20:27:02.066Z,15.65
2023-04-03T20:29:29.117Z,15.65
2023-04-03T20:31:56.205Z,15.59
2023-04-03T20:34:23.198Z,15.64
2023-04-03T20:36:50.356Z,15.59
2023-04-03T20:39:19.245Z,15.64
2023-04-03T20:41:46.236Z,15.64
2023-04-03T20:44:13.183Z,15.62
2023-04-03T20:46:52.247Z,15.54
2023-04-03T20:49:21.485Z,15.52
2023-04-03T20:51:48.656Z,15.48
2023-04-03T20:54:15.546Z,15.34
2023-04-03T20:56:42.844Z,15.48
2023-04-03T20:59:11.010Z,15.34
2023-04-03T21:01:38.060Z,15.53
2023-04-03T21:04:30.915Z,15.45
2023-04-03T21:07:35.395Z,15.52
2023-04-03T21:10:40.512Z,15.49
2023-04-03T21:13:44.994Z,15.48
2023-04-03T21:16:12.068Z,15.45
2023-04-03T21:19:07.312Z,14.89
2023-04-03T21:21:36.524Z,15.37
2023-04-03T21:24:06.696Z,15.08
2023-04-03T21:26:34.379Z,15.28
2023-04-03T21:29:01.361Z,15.31
2023-04-03T21:32:06.857Z,15.30
2023-04-03T21:34:33.843Z,15.29
2023-04-03T21:37:05.638Z,15.28
2023-04-03T21:39:33.171Z,15.25
2023-04-03T21:42:00.002Z,15.21
2023-04-03T21:44:29.618Z,15.12
2023-04-03T21:46:56.622Z,15.08
2023-04-03T21:49:24.181Z,15.06
2023-04-03T21:51:51.921Z,14.71
2023-04-03T21:54:18.972Z,14.89
2023-04-03T21:56:48.201Z,14.92
2023-04-03T21:59:15.323Z,14.89
2023-04-03T22:01:42.403Z,14.85
2023-04-03T22:04:09.222Z,14.86
2023-04-03T22:06:37.479Z,14.69
2023-04-03T22:09:04.415Z,14.86
2023-04-03T22:11:31.346Z,14.87
2023-04-03T22:13:58.357Z,14.52
2023-04-03T22:16:25.696Z,14.89
2023-04-03T22:18:53.027Z,14.87
2023-04-03T22:21:21.137Z,14.72
2023-04-03T22:23:47.969Z,14.65
2023-04-03T22:26:14.836Z,14.64
2023-04-03T22:28:43.686Z,14.69
2023-04-03T22:31:11.865Z,14.72
2023-04-03T22:33:38.705Z,14.75
2023-04-03T22:36:06.134Z,14.80
2023-04-03T22:38:33.188Z,14.79
2023-04-03T22:41:00.727Z,14.59
2023-04-03T22:43:28.231Z,14.64
2023-04-03T22:45:55.505Z,14.77
2023-04-03T22:48:22.839Z,14.70
2023-04-03T22:50:50.675Z,14.91
2023-04-03T22:53:17.938Z,14.78
2023-04-03T22:55:45.109Z,14.78
2023-04-03T22:58:11.830Z,14.77
2023-04-03T23:00:38.817Z,14.82
2023-04-03T23:03:05.898Z,14.92
2023-04-03T23:05:32.782Z,14.93
2023-04-03T23:07:59.604Z,14.75
2023-04-03T23:10:26.564Z,15.00
2023-04-03T23:12:53.300Z,15.02
2023-04-03T23:15:20.172Z,14.96
2023-04-03T23:17:48.727Z,15.08
2023-04-03T23:20:15.705Z,15.14
2023-04-03T23:22:45.924Z,15.07
2023-04-03T23:25:12.747Z,15.22
2023-04-03T23:27:39.530Z,14.95
2023-04-03T23:30:07.609Z,15.18
2023-04-03T23:32:34.563Z,15.30
2023-04-03T23:35:01.398Z,15.12
2023-04-03T23:37:28.217Z,15.32
2023-04-03T23:39:54.968Z,15.09
2023-04-03T23:42:21.697Z,15.35
2023-04-03T23:44:48.608Z,15.33
2023-04-03T23:47:15.566Z,15.07
2023-04-03T23:49:42.378Z,15.38
2023-04-03T23:52:09.209Z,15.39
2023-04-03T23:54:36.008Z,15.39
2023-04-03T23:57:02.763Z,14.81
2023-04-03T23:59:31.227Z,14.96
